Time;durP1;ratioP1;P1;durP2;ratioP2;P2;SDS_P1;SDS_P2;PMS_P1;PMS_P2;Temp;Humidity;BMP_temperature;BMP_pressure;BME280_temperature;BME280_humidity;BME280_pressure;Samples;Min_cycle;Max_cycle;Signal;HPM_P1;HPM_P2
2022/10/17 00:01:03;;;;;;;65.43;47.13;;;18.80;1.00;;;;;;5053318;28;20123;-73
2022/10/17 00:03:29;;;;;;;66.63;47.35;;;18.80;1.00;;;;;;5051994;28;20043;-73
2022/10/17 00:05:54;;;;;;;65.13;48.60;;;18.80;1.00;;;;;;5042443;28;20041;-73
2022/10/17 00:08:20;;;;;;;62.70;47.40;;;18.80;1.00;;;;;;5042819;28;20146;-73
2022/10/17 00:10:58;;;;;;;67.32;48.90;;;18.80;1.00;;;;;;5052284;28;20473;-73
2022/10/17 00:13:25;;;;;;;64.65;46.83;;;18.80;1.00;;;;;;5050245;28;20045;-73
2022/10/17 00:15:50;;;;;;;63.25;45.95;;;18.80;1.00;;;;;;5038853;28;20021;-73
2022/10/17 00:18:16;;;;;;;66.18;45.95;;;18.80;1.00;;;;;;5052064;28;20028;-74
2022/10/17 00:20:42;;;;;;;66.75;49.00;;;18.80;1.00;;;;;;5053169;28;20044;-73
2022/10/17 00:23:07;;;;;;;65.80;47.30;;;18.70;1.00;;;;;;5052213;28;20481;-73
2022/10/17 00:25:33;;;;;;;63.92;45.97;;;18.80;1.00;;;;;;5053054;28;20086;-73
2022/10/17 00:27:59;;;;;;;65.30;48.17;;;18.70;1.00;;;;;;5046617;28;20021;-73
2022/10/17 00:30:24;;;;;;;60.03;45.22;;;18.70;1.00;;;;;;5045252;28;20036;-73
2022/10/17 00:32:50;;;;;;;61.88;45.85;;;18.70;1.00;;;;;;5052135;28;20100;-73
2022/10/17 00:35:15;;;;;;;64.28;46.03;;;18.70;1.00;;;;;;5052682;28;20049;-74
2022/10/17 00:37:41;;;;;;;64.03;46.65;;;18.70;1.00;;;;;;5049222;28;20028;-73
2022/10/17 00:40:07;;;;;;;60.58;44.72;;;18.60;1.00;;;;;;5052774;28;20021;-73
2022/10/17 00:42:33;;;;;;;63.28;46.03;;;18.70;1.00;;;;;;5051304;28;20100;-73
2022/10/17 00:45:17;;;;;;;61.72;45.50;;;18.70;1.00;;;;;;5039224;28;20467;-73
2022/10/17 00:47:46;;;;;;;63.80;47.75;;;18.60;1.00;;;;;;5051582;28;20352;-73
2022/10/17 00:50:12;;;;;;;66.47;47.17;;;18.60;1.00;;;;;;5052667;28;20025;-73
2022/10/17 00:52:39;;;;;;;68.15;48.50;;;18.60;1.00;;;;;;5051551;28;20028;-73
2022/10/17 00:55:23;;;;;;;66.55;48.70;;;18.60;1.00;;;;;;5052490;28;20048;-73
2022/10/17 00:57:49;;;;;;;67.35;49.53;;;18.60;1.00;;;;;;5052068;28;20355;-73
2022/10/17 01:00:16;;;;;;;67.13;48.75;;;18.60;1.00;;;;;;5052677;28;20025;-72
2022/10/17 01:02:42;;;;;;;63.75;47.00;;;18.60;1.00;;;;;;5043983;28;20028;-72
2022/10/17 01:05:08;;;;;;;70.03;47.45;;;18.60;1.00;;;;;;5049753;28;20125;-73
2022/10/17 01:07:34;;;;;;;66.63;48.13;;;18.60;1.00;;;;;;5045831;28;20021;-72
2022/10/17 01:10:00;;;;;;;68.40;48.33;;;18.50;1.00;;;;;;5051508;28;20020;-72
2022/10/17 01:12:45;;;;;;;64.93;49.05;;;18.50;1.00;;;;;;5055546;28;20041;-72
2022/10/17 01:15:17;;;;;;;61.95;46.97;;;18.50;1.00;;;;;;5052558;28;20048;-73
2022/10/17 01:18:16;;;;;;;66.00;46.33;;;18.50;1.00;;;;;;5054908;28;20029;-72
2022/10/17 01:21:09;;;;;;;65.10;46.22;;;18.50;1.00;;;;;;5055670;28;20087;-73
2022/10/17 01:23:41;;;;;;;62.95;46.85;;;18.50;1.00;;;;;;5054617;28;20027;-73
2022/10/17 01:26:36;;;;;;;66.43;48.38;;;18.50;1.00;;;;;;5055788;28;20103;-73
2022/10/17 01:29:20;;;;;;;;;;;18.40;1.00;;;;;;5043136;28;20122;-73
2022/10/17 01:31:59;;;;;;;62.17;45.83;;;18.40;1.00;;;;;;5055534;28;19905;-73
2022/10/17 01:34:28;;;;;;;63.40;46.40;;;18.40;1.00;;;;;;5054510;28;20044;-73
2022/10/17 01:37:13;;;;;;;62.75;45.78;;;18.40;1.00;;;;;;5053496;28;20029;-73
2022/10/17 01:39:52;;;;;;;64.32;44.25;;;18.40;1.00;;;;;;5045765;28;20462;-73
2022/10/17 01:42:21;;;;;;;65.32;47.28;;;18.40;1.00;;;;;;5055801;28;20543;-73
2022/10/17 01:45:06;;;;;;;59.90;43.67;;;18.40;1.00;;;;;;5055028;28;20071;-72
2022/10/17 01:47:33;;;;;;;59.20;44.50;;;18.40;1.00;;;;;;5046836;28;20483;-73
2022/10/17 01:50:08;;;;;;;66.60;46.40;;;18.30;1.00;;;;;;5050353;28;20032;-72
2022/10/17 01:52:58;;;;;;;68.82;47.33;;;18.30;1.00;;;;;;5038720;28;20025;-72
2022/10/17 01:55:31;;;;;;;71.78;49.40;;;18.30;1.00;;;;;;5039962;28;20497;-72
2022/10/17 01:58:04;;;;;;;66.90;48.95;;;18.30;1.00;;;;;;5054910;28;20017;-73
2022/10/17 02:00:31;;;;;;;69.80;48.38;;;18.30;1.00;;;;;;5055780;28;20037;-72
2022/10/17 02:03:05;;;;;;;69.95;48.08;;;18.30;1.00;;;;;;5053608;28;20025;-72
2022/10/17 02:05:37;;;;;;;71.70;49.50;;;18.30;1.00;;;;;;5055174;28;20490;-71
2022/10/17 02:08:03;;;;;;;71.65;50.78;;;18.30;1.00;;;;;;5054551;28;20036;-71
2022/10/17 02:10:50;;;;;;;70.30;50.50;;;18.30;1.00;;;;;;5041275;28;20037;-71
2022/10/17 02:13:25;;;;;;;73.32;53.05;;;18.30;1.00;;;;;;5050874;28;20041;-71
2022/10/17 02:15:56;;;;;;;74.45;50.95;;;18.30;1.00;;;;;;5040609;28;20099;-72
2022/10/17 02:19:07;;;;;;;67.35;48.50;;;18.30;1.00;;;;;;5049578;28;20028;-71
2022/10/17 02:21:52;;;;;;;74.75;51.30;;;18.30;1.00;;;;;;5052312;28;20037;-72
2022/10/17 02:24:22;;;;;;;71.88;51.60;;;18.20;1.00;;;;;;5052554;28;20501;-72
2022/10/17 02:27:04;;;;;;;76.40;54.30;;;18.20;1.00;;;;;;5055204;28;20112;-72
2022/10/17 02:29:37;;;;;;;74.43;52.58;;;18.20;1.00;;;;;;5042050;28;20033;-72
2022/10/17 02:32:07;;;;;;;77.50;52.15;;;18.20;1.00;;;;;;5041773;28;20028;-71
2022/10/17 02:34:37;;;;;;;79.80;54.35;;;18.20;1.00;;;;;;5054239;28;20044;-72
2022/10/17 02:37:05;;;;;;;77.97;55.90;;;18.20;1.00;;;;;;5055022;28;20063;-72
2022/10/17 02:39:33;;;;;;;78.22;54.17;;;18.20;1.00;;;;;;5053800;28;20032;-72
2022/10/17 02:42:02;;;;;;;83.47;56.95;;;18.20;1.00;;;;;;5054698;28;20052;-72
2022/10/17 02:44:29;;;;;;;79.43;53.95;;;18.20;1.00;;;;;;5052836;28;20064;-72
2022/10/17 02:47:03;;;;;;;80.85;56.95;;;18.20;1.00;;;;;;5040627;28;20022;-72
2022/10/17 02:49:31;;;;;;;;;;;18.20;1.00;;;;;;5054440;28;20474;-72
2022/10/17 02:52:00;;;;;;;82.00;55.13;;;18.20;1.00;;;;;;5040645;28;19967;-72
2022/10/17 02:54:53;;;;;;;83.22;56.75;;;18.10;1.00;;;;;;5045932;28;20041;-72
2022/10/17 02:57:31;;;;;;;84.63;59.13;;;18.10;1.00;;;;;;5050467;28;20021;-72
2022/10/17 02:59:59;;;;;;;84.53;58.67;;;18.10;1.00;;;;;;5054004;28;20036;-72
2022/10/17 03:02:25;;;;;;;84.22;56.85;;;18.10;1.00;;;;;;5054619;28;20124;-72
2022/10/17 03:04:51;;;;;;;83.05;55.50;;;18.10;1.00;;;;;;5053285;28;20526;-72
2022/10/17 03:07:16;;;;;;;86.50;57.70;;;18.10;1.00;;;;;;5054229;28;20033;-73
2022/10/17 03:09:42;;;;;;;88.65;59.90;;;18.10;1.00;;;;;;5043754;28;20348;-73
2022/10/17 03:12:08;;;;;;;81.85;57.13;;;18.10;1.00;;;;;;5054083;28;20077;-72
2022/10/17 03:14:33;;;;;;;84.63;59.00;;;18.10;1.00;;;;;;5053406;28;20037;-73
2022/10/17 03:16:59;;;;;;;80.55;54.92;;;18.10;1.00;;;;;;5054186;28;20072;-73
2022/10/17 03:19:25;;;;;;;78.28;54.90;;;18.10;1.00;;;;;;5052710;28;20155;-73
2022/10/17 03:21:50;;;;;;;82.63;55.05;;;18.10;1.00;;;;;;5054032;28;20025;-73
2022/10/17 03:24:16;;;;;;;85.13;58.00;;;18.10;1.00;;;;;;5054161;28;20040;-73
2022/10/17 03:26:41;;;;;;;86.55;58.88;;;18.10;1.00;;;;;;5053991;28;20028;-73
2022/10/17 03:29:07;;;;;;;83.80;56.60;;;18.10;1.00;;;;;;5046064;28;20521;-73
2022/10/17 03:31:32;;;;;;;87.05;58.28;;;18.10;1.00;;;;;;5048853;28;20029;-73
2022/10/17 03:33:58;;;;;;;80.65;55.35;;;18.10;1.00;;;;;;5036029;28;20120;-73
2022/10/17 03:36:24;;;;;;;76.32;52.42;;;18.10;1.00;;;;;;5046624;28;20029;-72
2022/10/17 03:38:53;;;;;;;88.68;60.42;;;18.00;1.00;;;;;;5052956;28;20021;-73
2022/10/17 03:41:19;;;;;;;80.63;55.05;;;18.00;1.00;;;;;;5053775;28;20017;-73
2022/10/17 03:43:45;;;;;;;83.47;57.78;;;18.00;1.00;;;;;;5052383;28;20025;-73
2022/10/17 03:46:10;;;;;;;86.90;56.45;;;18.00;1.00;;;;;;5053812;28;20025;-72
2022/10/17 03:48:36;;;;;;;85.38;58.13;;;18.00;1.00;;;;;;5052633;28;20033;-72
2022/10/17 03:51:07;;;;;;;84.35;57.50;;;18.00;1.00;;;;;;5053664;28;20059;-73
2022/10/17 03:53:33;;;;;;;85.00;56.92;;;18.00;1.00;;;;;;5052660;28;20029;-72
2022/10/17 03:56:14;;;;;;;83.78;56.25;;;18.00;1.00;;;;;;5039713;28;20104;-73
2022/10/17 03:58:41;;;;;;;92.07;57.85;;;18.00;1.00;;;;;;5051474;28;20029;-73
2022/10/17 04:01:08;;;;;;;84.75;55.38;;;18.00;1.00;;;;;;5053382;28;20025;-72
2022/10/17 04:03:34;;;;;;;82.90;55.80;;;18.00;1.00;;;;;;5052008;28;20017;-73
2022/10/17 04:06:00;;;;;;;83.70;55.28;;;18.00;1.00;;;;;;5050022;28;20044;-72
2022/10/17 04:08:27;;;;;;;84.97;56.25;;;18.00;1.00;;;;;;5052417;28;20017;-72
2022/10/17 04:11:00;;;;;;;89.75;57.58;;;18.00;1.00;;;;;;5049945;28;20059;-72
2022/10/17 04:13:27;;;;;;;85.90;57.33;;;18.00;1.00;;;;;;5051441;28;20045;-72
2022/10/17 04:15:55;;;;;;;81.72;55.17;;;18.00;1.00;;;;;;5052842;28;20040;-73
2022/10/17 04:18:21;;;;;;;89.45;59.15;;;18.00;1.00;;;;;;5053390;28;20017;-73
2022/10/17 04:20:46;;;;;;;88.75;58.15;;;18.00;1.00;;;;;;5052116;28;20031;-72
2022/10/17 04:23:12;;;;;;;86.90;56.50;;;17.90;1.00;;;;;;5053096;28;20493;-72
2022/10/17 04:25:37;;;;;;;84.35;57.50;;;17.90;1.00;;;;;;5047839;28;20098;-73
2022/10/17 04:28:03;;;;;;;83.10;57.28;;;17.90;1.00;;;;;;5053298;28;20025;-72
2022/10/17 04:30:29;;;;;;;82.80;56.95;;;17.90;1.00;;;;;;5052074;28;20053;-72
2022/10/17 04:32:54;;;;;;;90.93;58.97;;;17.90;1.00;;;;;;5057304;28;20025;-73
2022/10/17 04:35:20;;;;;;;86.72;57.53;;;17.90;1.00;;;;;;5051974;28;20390;-72
2022/10/17 04:37:45;;;;;;;90.65;59.63;;;17.90;1.00;;;;;;5051548;28;20482;-72
2022/10/17 04:40:11;;;;;;;91.88;58.60;;;17.90;1.00;;;;;;5052427;28;20078;-72
2022/10/17 04:42:37;;;;;;;89.18;59.45;;;17.90;1.00;;;;;;5048298;28;20017;-73
2022/10/17 04:45:03;;;;;;;97.07;60.83;;;17.90;1.00;;;;;;5043918;28;20056;-73
2022/10/17 04:47:29;;;;;;;87.63;59.17;;;17.90;1.00;;;;;;5052881;28;20107;-72
2022/10/17 04:49:54;;;;;;;88.38;60.08;;;17.90;1.00;;;;;;5052241;28;20138;-72
2022/10/17 04:52:20;;;;;;;94.13;59.55;;;17.90;1.00;;;;;;5053013;28;20530;-72
2022/10/17 04:54:45;;;;;;;84.40;57.85;;;17.90;1.00;;;;;;5052069;28;20025;-72
2022/10/17 04:57:11;;;;;;;89.55;60.05;;;17.90;1.00;;;;;;5052840;28;20028;-72
2022/10/17 04:59:37;;;;;;;87.22;57.03;;;17.90;1.00;;;;;;5051901;28;20052;-72
2022/10/17 05:02:02;;;;;;;89.85;60.13;;;17.90;1.00;;;;;;5052670;28;20036;-72
2022/10/17 05:04:28;;;;;;;91.60;59.90;;;17.90;1.00;;;;;;5044169;28;20034;-73
2022/10/17 05:06:53;;;;;;;84.38;56.53;;;17.90;1.00;;;;;;5052762;28;20025;-72
2022/10/17 05:09:19;;;;;;;93.13;60.70;;;17.90;1.00;;;;;;5058927;28;20127;-72
2022/10/17 05:11:45;;;;;;;86.45;56.28;;;17.90;1.00;;;;;;5052704;28;20363;-72
2022/10/17 05:14:10;;;;;;;87.93;57.22;;;17.90;1.00;;;;;;5048562;28;20045;-72
2022/10/17 05:16:36;;;;;;;91.72;59.30;;;17.90;1.00;;;;;;5049690;28;20029;-73
2022/10/17 05:19:01;;;;;;;86.88;57.33;;;17.90;1.00;;;;;;5049343;28;20033;-72
2022/10/17 05:21:28;;;;;;;86.43;57.78;;;17.90;1.00;;;;;;5049626;28;20025;-72
2022/10/17 05:23:55;;;;;;;93.93;59.53;;;17.90;1.00;;;;;;5051710;28;20029;-72
2022/10/17 05:36:26;;;;;;;92.07;59.75;;;17.80;1.00;;;;;;5052103;28;20402;-72
2022/10/17 05:38:52;;;;;;;85.57;58.22;;;17.80;1.00;;;;;;5052886;28;20021;-72
2022/10/17 05:41:18;;;;;;;88.72;58.42;;;17.80;1.00;;;;;;5047101;28;20041;-71
2022/10/17 05:43:44;;;;;;;97.35;59.95;;;17.80;1.00;;;;;;5052280;28;20029;-72
2022/10/17 05:46:10;;;;;;;84.75;57.33;;;17.80;1.00;;;;;;5051325;28;20033;-72
2022/10/17 05:48:36;;;;;;;91.72;58.97;;;17.80;1.00;;;;;;5052455;28;20029;-72
2022/10/17 05:51:04;;;;;;;88.03;59.88;;;17.80;1.00;;;;;;5054861;28;20481;-71
2022/10/17 05:53:31;;;;;;;86.65;58.13;;;17.80;1.00;;;;;;5056228;28;20059;-71
2022/10/17 05:56:02;;;;;;;86.53;58.53;;;17.90;1.00;;;;;;5054974;28;20040;-72
2022/10/17 05:58:29;;;;;;;92.22;58.50;;;17.90;1.00;;;;;;5055774;28;20021;-71
2022/10/17 06:00:59;;;;;;;94.80;60.92;;;17.90;1.00;;;;;;5055058;28;20032;-72
2022/10/17 06:03:25;;;;;;;94.47;59.70;;;17.80;1.00;;;;;;5054114;28;20083;-71
2022/10/17 06:05:51;;;;;;;94.00;63.53;;;17.90;1.00;;;;;;5045880;28;20057;-71
2022/10/17 06:08:17;;;;;;;90.85;59.20;;;17.90;1.00;;;;;;5050443;28;20462;-71
2022/10/17 06:10:43;;;;;;;90.75;61.67;;;17.90;1.00;;;;;;5054240;28;20092;-71
2022/10/17 06:13:08;;;;;;;89.68;58.03;;;17.80;1.00;;;;;;5048191;28;20047;-72
2022/10/17 06:15:34;;;;;;;95.47;60.08;;;17.80;1.00;;;;;;5054373;28;20416;-71
2022/10/17 06:17:59;;;;;;;88.13;57.85;;;17.90;1.00;;;;;;5055424;28;20104;-71
2022/10/17 06:20:25;;;;;;;87.93;57.13;;;17.90;1.00;;;;;;5054284;28;20048;-71
2022/10/17 06:22:51;;;;;;;86.80;57.85;;;17.90;1.00;;;;;;5055285;28;20488;-72
2022/10/17 06:25:16;;;;;;;90.40;56.15;;;17.90;1.00;;;;;;5054561;28;20083;-72
2022/10/17 06:27:42;;;;;;;87.97;57.95;;;17.90;1.00;;;;;;5055422;28;20059;-72
2022/10/17 06:30:07;;;;;;;88.95;59.88;;;18.00;1.00;;;;;;5053301;28;20053;-71
2022/10/17 06:32:33;;;;;;;86.78;58.17;;;18.00;1.00;;;;;;5055193;28;20500;-71
2022/10/17 06:34:59;;;;;;;92.00;60.03;;;18.00;1.00;;;;;;5053781;28;20052;-71
2022/10/17 06:37:24;;;;;;;89.25;60.00;;;18.00;1.00;;;;;;5055075;28;20029;-71
2022/10/17 06:39:50;;;;;;;89.45;57.90;;;18.00;1.00;;;;;;5054562;28;20033;-71
2022/10/17 06:42:15;;;;;;;87.72;59.13;;;18.00;1.00;;;;;;5054944;28;20608;-72
2022/10/17 06:44:41;;;;;;;92.20;60.55;;;18.00;1.00;;;;;;5054000;28;20033;-71
2022/10/17 06:47:08;;;;;;;92.18;61.03;;;18.00;1.00;;;;;;5055008;28;20099;-72
2022/10/17 06:49:33;;;;;;;95.22;62.00;;;18.10;1.00;;;;;;5054207;28;20429;-72
2022/10/17 06:51:59;;;;;;;94.68;62.35;;;18.10;1.00;;;;;;5054896;28;20028;-72
2022/10/17 06:54:26;;;;;;;95.63;62.35;;;18.10;1.00;;;;;;5053773;28;20033;-71
2022/10/17 06:56:52;;;;;;;88.72;58.92;;;18.10;1.00;;;;;;5053786;28;20036;-71
2022/10/17 06:59:18;;;;;;;93.53;59.28;;;18.10;1.00;;;;;;5053918;28;20021;-71
2022/10/17 07:01:43;;;;;;;89.28;61.33;;;18.20;1.00;;;;;;5054671;28;20029;-72
2022/10/17 07:04:09;;;;;;;91.28;63.75;;;18.10;1.00;;;;;;5053706;28;20086;-71
2022/10/17 07:06:34;;;;;;;101.45;63.28;;;18.10;1.00;;;;;;5054694;28;20033;-71
2022/10/17 07:09:01;;;;;;;97.82;63.40;;;18.10;1.00;;;;;;5063039;28;20025;-71
2022/10/17 07:11:27;;;;;;;98.72;64.43;;;18.20;1.00;;;;;;5045652;28;20494;-70
2022/10/17 07:13:52;;;;;;;95.97;63.30;;;18.20;1.00;;;;;;5045699;28;20041;-71
2022/10/17 07:16:20;;;;;;;98.72;63.42;;;18.20;1.00;;;;;;5040521;28;20048;-71
2022/10/17 07:18:48;;;;;;;98.55;64.05;;;18.20;1.00;;;;;;5042185;28;20028;-70
2022/10/17 07:21:14;;;;;;;102.03;67.85;;;18.30;1.00;;;;;;5048842;28;20375;-70
2022/10/17 07:23:40;;;;;;;99.00;64.40;;;18.20;1.00;;;;;;5053472;28;20031;-70
2022/10/17 07:26:09;;;;;;;97.18;64.18;;;18.30;1.00;;;;;;5047292;28;20417;-71
2022/10/17 07:28:37;;;;;;;102.82;64.20;;;18.30;1.00;;;;;;5053963;28;20029;-71
2022/10/17 07:31:07;;;;;;;102.40;67.03;;;18.30;1.00;;;;;;5046511;28;20036;-70
2022/10/17 07:33:33;;;;;;;106.80;68.70;;;18.30;1.00;;;;;;5053875;28;20017;-71
2022/10/17 07:36:00;;;;;;;107.00;68.63;;;18.40;1.00;;;;;;5052629;28;20047;-70
2022/10/17 07:38:26;;;;;;;103.63;69.68;;;18.30;1.00;;;;;;5053759;28;20025;-70
2022/10/17 07:40:56;;;;;;;104.93;68.05;;;18.40;1.00;;;;;;5053227;28;20033;-70
2022/10/17 07:43:23;;;;;;;108.30;69.57;;;18.40;1.00;;;;;;5053832;28;20024;-70
2022/10/17 07:45:50;;;;;;;105.00;66.90;;;18.40;1.00;;;;;;5052754;28;20032;-70
2022/10/17 07:48:15;;;;;;;111.47;69.22;;;18.40;1.00;;;;;;5052842;28;20021;-71
2022/10/17 07:50:41;;;;;;;103.32;66.65;;;18.40;1.00;;;;;;5046904;28;20033;-70
2022/10/17 07:53:06;;;;;;;106.25;67.80;;;18.50;1.00;;;;;;5045230;28;20028;-70
2022/10/17 07:55:32;;;;;;;102.43;67.32;;;18.50;1.00;;;;;;5052602;28;20037;-70
2022/10/17 07:57:59;;;;;;;108.22;68.45;;;18.50;1.00;;;;;;5053432;28;20490;-70
2022/10/17 08:00:25;;;;;;;109.10;70.05;;;18.50;1.00;;;;;;5052261;28;20033;-70
2022/10/17 08:02:51;;;;;;;103.88;67.97;;;18.60;1.00;;;;;;5057437;28;20427;-70
2022/10/17 08:05:16;;;;;;;104.85;69.07;;;18.60;1.00;;;;;;5052512;28;20064;-70
2022/10/17 08:07:42;;;;;;;107.82;68.97;;;18.60;1.00;;;;;;5053465;28;20028;-70
2022/10/17 08:10:10;;;;;;;98.25;67.30;;;18.70;1.00;;;;;;5052330;28;20568;-70
2022/10/17 08:12:35;;;;;;;108.60;71.10;;;18.70;1.00;;;;;;5044030;28;20045;-70
2022/10/17 08:15:01;;;;;;;107.85;69.15;;;18.70;1.00;;;;;;5042664;28;20474;-70
2022/10/17 08:17:27;;;;;;;103.68;67.65;;;18.70;1.00;;;;;;5053123;28;20032;-70
2022/10/17 08:19:52;;;;;;;104.53;68.78;;;18.80;1.00;;;;;;5052047;28;20032;-70
2022/10/17 08:22:18;;;;;;;103.38;67.22;;;18.80;1.00;;;;;;5053451;28;20040;-69
2022/10/17 08:24:45;;;;;;;112.10;71.38;;;18.80;1.00;;;;;;5047817;28;20475;-70
2022/10/17 08:27:12;;;;;;;109.88;71.82;;;18.80;1.00;;;;;;5053162;28;20021;-70
2022/10/17 08:29:39;;;;;;;106.72;70.78;;;18.80;1.00;;;;;;5051983;28;20025;-70
2022/10/17 08:32:06;;;;;;;107.40;70.72;;;18.80;1.00;;;;;;5051884;28;20060;-69
2022/10/17 08:34:32;;;;;;;108.82;71.78;;;18.80;1.00;;;;;;5047672;28;20037;-69
2022/10/17 08:36:57;;;;;;;117.75;74.90;;;18.80;1.00;;;;;;5051062;28;20070;-70
2022/10/17 08:39:23;;;;;;;107.82;73.07;;;18.90;1.00;;;;;;5053325;28;20033;-70
2022/10/17 08:42:22;;;;;;;108.97;69.68;;;19.00;1.00;;;;;;5051733;28;20029;-70
2022/10/17 08:44:53;;;;;;;111.88;71.32;;;19.10;1.00;;;;;;5050502;28;20033;-70
2022/10/17 08:47:26;;;;;;;103.15;69.60;;;19.10;1.00;;;;;;5043032;28;20025;-69
2022/10/17 08:49:58;;;;;;;102.65;69.28;;;19.10;1.00;;;;;;5050302;28;20026;-69
2022/10/17 08:52:39;;;;;;;100.65;68.80;;;19.10;1.00;;;;;;5052541;28;20053;-70
2022/10/17 08:55:15;;;;;;;108.82;70.65;;;19.20;1.00;;;;;;5059990;28;20068;-69
2022/10/17 08:57:41;;;;;;;109.78;69.82;;;19.20;1.00;;;;;;5041407;28;20032;-69
2022/10/17 09:00:18;;;;;;;105.18;68.90;;;19.20;1.00;;;;;;5051183;28;20052;-69
2022/10/17 09:02:56;;;;;;;105.72;70.85;;;19.30;1.00;;;;;;5038282;28;20029;-69
2022/10/17 09:05:51;;;;;;;100.28;70.00;;;19.30;1.00;;;;;;5051763;28;20037;-69
2022/10/17 09:15:32;;;;;;;110.68;70.47;;;19.30;1.00;;;;;;5040899;28;20052;-69
2022/10/17 09:18:19;;;;;;;119.00;73.90;;;19.40;1.00;;;;;;5039565;28;20425;-70
2022/10/17 09:20:52;;;;;;;115.65;74.75;;;19.40;1.00;;;;;;5043118;28;20025;-69
2022/10/17 09:23:25;;;;;;;118.38;72.00;;;19.50;1.00;;;;;;5051292;28;20435;-70
2022/10/17 09:25:54;;;;;;;114.25;72.70;;;19.50;1.00;;;;;;5055706;28;20055;-69
2022/10/17 09:28:40;;;;;;;110.65;73.05;;;19.60;1.00;;;;;;5056217;28;20029;-69
2022/10/17 09:31:12;;;;;;;112.28;70.70;;;19.60;1.00;;;;;;5055134;28;20432;-69
2022/10/17 09:33:41;;;;;;;107.47;70.95;;;19.60;1.00;;;;;;5054750;28;20037;-69
2022/10/17 09:36:17;;;;;;;112.15;73.85;;;19.70;1.00;;;;;;5055152;28;20036;-69
2022/10/17 09:38:53;;;;;;;106.60;70.72;;;19.70;1.00;;;;;;5053262;28;20060;-69
2022/10/17 09:41:21;;;;;;;103.43;71.13;;;19.70;1.00;;;;;;5053972;28;20059;-69
2022/10/17 09:43:47;;;;;;;111.57;71.53;;;19.70;1.00;;;;;;5056181;28;20113;-69
2022/10/17 09:46:21;;;;;;;110.95;70.28;;;19.70;1.00;;;;;;5055132;28;20116;-69
2022/10/17 09:49:01;;;;;;;108.32;71.90;;;19.80;1.00;;;;;;5055933;28;20092;-69
2022/10/17 09:51:28;;;;;;;110.20;72.30;;;19.80;1.00;;;;;;5053590;28;20022;-69
2022/10/17 09:54:02;;;;;;;104.18;68.80;;;19.80;1.00;;;;;;5042304;28;20112;-69
2022/10/17 09:56:28;;;;;;;108.35;69.45;;;19.90;1.00;;;;;;5054895;28;20040;-69
2022/10/17 09:58:57;;;;;;;101.75;66.80;;;19.90;1.00;;;;;;5043601;28;20022;-69
2022/10/17 10:01:29;;;;;;;98.57;67.93;;;20.00;1.00;;;;;;5052892;28;20032;-69
2022/10/17 10:04:12;;;;;;;89.63;62.58;;;20.00;1.00;;;;;;5059042;28;20112;-69
2022/10/17 10:06:39;;;;;;;92.15;61.63;;;20.10;1.00;;;;;;5051970;28;20025;-69
2022/10/17 10:09:15;;;;;;;87.82;58.78;;;20.10;1.00;;;;;;5061022;28;20030;-69
2022/10/17 10:11:47;;;;;;;89.82;61.55;;;20.20;1.00;;;;;;5054259;28;20025;-69
2022/10/17 10:14:22;;;;;;;91.53;61.47;;;20.20;1.00;;;;;;5058558;28;20051;-69
2022/10/17 10:16:49;;;;;;;87.63;60.47;;;20.20;1.00;;;;;;5042302;28;20049;-69
2022/10/17 10:19:33;;;;;;;82.28;60.03;;;20.20;1.00;;;;;;5052757;28;20693;-69
2022/10/17 10:22:05;;;;;;;86.13;57.88;;;20.30;1.00;;;;;;5052861;28;20020;-69
2022/10/17 10:24:31;;;;;;;83.88;56.80;;;20.30;1.00;;;;;;5054624;28;20029;-69
2022/10/17 10:27:01;;;;;;;78.90;55.58;;;20.40;1.00;;;;;;5043270;28;20013;-69
2022/10/17 10:29:35;;;;;;;75.70;53.38;;;20.40;1.00;;;;;;5048040;28;20426;-69
2022/10/17 10:32:28;;;;;;;82.45;57.15;;;20.50;1.00;;;;;;5044369;28;20356;-69
2022/10/17 10:34:55;;;;;;;83.43;57.97;;;20.50;1.00;;;;;;5053940;28;20071;-68
2022/10/17 10:37:22;;;;;;;85.70;58.63;;;20.50;1.00;;;;;;5041813;28;20028;-68
2022/10/17 10:39:54;;;;;;;85.63;56.65;;;20.60;1.00;;;;;;5054190;28;20044;-69
2022/10/17 10:42:38;;;;;;;87.15;58.53;;;20.70;1.00;;;;;;5053115;28;20028;-68
2022/10/17 10:45:35;;;;;;;84.97;57.83;;;20.70;1.00;;;;;;5064760;28;20033;-68
2022/10/17 10:48:23;;;;;;;82.30;57.25;;;20.70;1.00;;;;;;5047157;28;20032;-69
2022/10/17 10:51:03;;;;;;;80.65;57.58;;;20.70;1.00;;;;;;5040890;28;20061;-68
2022/10/17 10:53:34;;;;;;;82.97;55.15;;;20.80;1.00;;;;;;5048233;28;20478;-69
2022/10/17 10:56:07;;;;;;;84.88;56.10;;;20.90;1.00;;;;;;5046385;28;20491;-69
2022/10/17 10:58:42;;;;;;;81.13;56.22;;;20.90;1.00;;;;;;5049206;28;20033;-69
2022/10/17 11:01:42;;;;;;;80.03;55.22;;;20.90;1.00;;;;;;5053479;28;20482;-69
2022/10/17 11:04:19;;;;;;;82.22;56.67;;;20.90;1.00;;;;;;5054308;28;20017;-69
2022/10/17 11:06:46;;;;;;;81.55;55.90;;;21.00;1.00;;;;;;5052644;28;20108;-68
2022/10/17 11:09:15;;;;;;;80.35;53.85;;;21.10;1.00;;;;;;5054445;28;20017;-68
2022/10/17 11:11:49;;;;;;;77.30;53.40;;;21.10;1.00;;;;;;5051989;28;20037;-68
2022/10/17 11:14:29;;;;;;;79.22;53.10;;;21.20;1.00;;;;;;5054155;28;20050;-68
2022/10/17 11:17:14;;;;;;;75.47;54.45;;;21.20;1.00;;;;;;5051469;28;20120;-68
2022/10/17 11:20:01;;;;;;;83.00;57.03;;;21.30;1.00;;;;;;5049076;28;20025;-68
2022/10/17 11:22:31;;;;;;;76.50;52.50;;;21.30;1.00;;;;;;5045955;28;20028;-68
2022/10/17 11:25:03;;;;;;;74.60;53.45;;;21.30;1.00;;;;;;5053838;28;20493;-67
2022/10/17 11:27:30;;;;;;;76.10;55.05;;;21.30;1.00;;;;;;5045074;28;20029;-68
2022/10/17 11:29:57;;;;;;;74.60;52.05;;;21.40;1.00;;;;;;5054289;28;20021;-68
2022/10/17 11:32:37;;;;;;;78.78;53.70;;;21.50;1.00;;;;;;5053131;28;20029;-68
2022/10/17 11:35:13;;;;;;;75.82;53.20;;;21.50;1.00;;;;;;5065927;28;20029;-69
2022/10/17 11:37:45;;;;;;;76.95;55.33;;;21.50;1.00;;;;;;5053289;28;20036;-67
2022/10/17 11:40:21;;;;;;;80.25;53.80;;;21.60;1.00;;;;;;5066342;28;20116;-67
2022/10/17 11:42:57;;;;;;;80.30;55.17;;;21.70;1.00;;;;;;5053147;28;20064;-67
2022/10/17 11:45:28;;;;;;;78.00;54.05;;;21.70;1.00;;;;;;5052746;28;20021;-67
2022/10/17 11:47:56;;;;;;;81.40;54.53;;;21.70;1.00;;;;;;5044498;28;20039;-67
2022/10/17 11:50:28;;;;;;;78.55;54.70;;;21.70;1.00;;;;;;5052626;28;20220;-67
2022/10/17 11:53:00;;;;;;;72.47;52.30;;;21.70;1.00;;;;;;5043477;28;20474;-67
2022/10/17 11:55:30;;;;;;;73.93;52.38;;;21.70;1.00;;;;;;5064420;28;20043;-66
2022/10/17 11:58:14;;;;;;;77.88;53.03;;;21.90;1.00;;;;;;5053565;28;20021;-67
2022/10/17 12:01:10;;;;;;;70.45;50.05;;;22.00;1.00;;;;;;5052454;28;20132;-67
2022/10/17 12:04:07;;;;;;;70.97;49.90;;;22.00;1.00;;;;;;5053503;28;20017;-67
2022/10/17 12:07:04;;;;;;;66.47;47.28;;;22.10;1.00;;;;;;5042396;28;20025;-68
2022/10/17 12:09:36;;;;;;;72.68;50.58;;;22.10;1.00;;;;;;5026892;28;20112;-69
2022/10/17 12:12:02;;;;;;;67.97;49.17;;;22.20;1.00;;;;;;5037213;28;20053;-68
2022/10/17 12:14:42;;;;;;;67.88;48.58;;;22.30;1.00;;;;;;5052972;28;20492;-68
2022/10/17 12:17:29;;;;;;;70.55;49.25;;;22.30;1.00;;;;;;5051540;28;20055;-68
2022/10/17 12:20:20;;;;;;;66.90;50.22;;;22.30;1.00;;;;;;5051473;28;20478;-68
2022/10/17 12:23:16;;;;;;;70.85;52.50;;;22.40;1.00;;;;;;5047475;28;20070;-68
2022/10/17 12:25:48;;;;;;;68.95;48.92;;;22.40;1.00;;;;;;5051113;28;20055;-68
2022/10/17 12:28:25;;;;;;;64.85;48.60;;;22.40;1.00;;;;;;5049100;28;20060;-67
2022/10/17 12:31:08;;;;;;;65.47;46.83;;;22.50;1.00;;;;;;5031839;28;20029;-67
2022/10/17 12:33:47;;;;;;;68.43;48.00;;;22.60;1.00;;;;;;5048243;28;20072;-67
2022/10/17 12:36:16;;;;;;;67.53;47.72;;;22.70;1.00;;;;;;5045311;28;20075;-67
2022/10/17 12:39:10;;;;;;;58.22;44.15;;;22.70;1.00;;;;;;5038762;28;20371;-67
2022/10/17 12:41:38;;;;;;;66.03;46.63;;;22.70;1.00;;;;;;5033693;28;20431;-66
2022/10/17 12:44:13;;;;;;;63.15;45.92;;;22.70;1.00;;;;;;5053126;28;20686;-67
2022/10/17 12:46:58;;;;;;;59.75;44.78;;;22.80;1.00;;;;;;5051694;28;20033;-67
2022/10/17 12:49:44;;;;;;;57.53;44.30;;;22.80;1.00;;;;;;5041867;28;20060;-67
2022/10/17 12:52:22;;;;;;;59.40;43.65;;;22.70;1.00;;;;;;5051977;28;20149;-67
2022/10/17 12:54:56;;;;;;;61.38;47.50;;;22.80;1.00;;;;;;5052087;28;20375;-67
2022/10/17 12:57:40;;;;;;;56.33;43.53;;;22.80;1.00;;;;;;5049690;28;20039;-67
2022/10/17 13:00:26;;;;;;;61.28;45.75;;;22.80;1.00;;;;;;5056585;28;20386;-67
2022/10/17 13:02:54;;;;;;;64.28;47.78;;;22.80;1.00;;;;;;5049130;28;20029;-67
2022/10/17 13:05:42;;;;;;;59.67;44.88;;;22.90;1.00;;;;;;5056595;28;20485;-67
2022/10/17 13:08:34;;;;;;;62.33;45.05;;;23.00;1.00;;;;;;5055394;28;20021;-67
2022/10/17 13:11:01;;;;;;;66.22;46.15;;;23.00;1.00;;;;;;5055439;28;20045;-67
2022/10/17 13:13:39;;;;;;;63.63;48.45;;;23.00;1.00;;;;;;5056446;28;20071;-67